sensor_id;sensor_type;location;lat;lon;timestamp;pressure;altitude;pressure_sealevel;temperature;humidity
31403;BME280;18039;52.188;21.024;2022-08-21T00:00:46;74708.22;;;-141.45;64.38
31403;BME280;18039;52.188;21.024;2022-08-21T00:03:15;74712.25;;;-141.45;64.62
31403;BME280;18039;52.188;21.024;2022-08-21T00:05:48;74712.25;;;-141.45;64.75
31403;BME280;18039;52.188;21.024;2022-08-21T00:08:17;74730.50;;;-141.45;64.86
31403;BME280;18039;52.188;21.024;2022-08-21T00:10:45;74730.50;;;-141.45;65.06
31403;BME280;18039;52.188;21.024;2022-08-21T00:13:13;74736.56;;;-141.45;65.27
31403;BME280;18039;52.188;21.024;2022-08-21T00:15:45;74734.53;;;-141.45;65.42
31403;BME280;18039;52.188;21.024;2022-08-21T00:18:14;74746.69;;;-141.45;65.67
31403;BME280;18039;52.188;21.024;2022-08-21T00:20:42;74748.72;;;-141.45;65.79
31403;BME280;18039;52.188;21.024;2022-08-21T00:23:10;74748.72;;;-141.45;65.90
31403;BME280;18039;52.188;21.024;2022-08-21T00:25:37;74748.72;;;-141.45;66.09
31403;BME280;18039;52.188;21.024;2022-08-21T00:28:04;74756.84;;;-141.45;66.41
31403;BME280;18039;52.188;21.024;2022-08-21T00:30:33;74769.00;;;-141.45;66.32
31403;BME280;18039;52.188;21.024;2022-08-21T00:33:01;74771.00;;;-141.45;66.73
31403;BME280;18039;52.188;21.024;2022-08-21T00:35:35;74773.03;;;-141.45;67.08
31403;BME280;18039;52.188;21.024;2022-08-21T00:38:04;74777.09;;;-141.45;67.31
31403;BME280;18039;52.188;21.024;2022-08-21T00:40:46;74785.19;;;-141.45;67.73
31403;BME280;18039;52.188;21.024;2022-08-21T00:43:19;74789.25;;;-141.45;67.91
31403;BME280;18039;52.188;21.024;2022-08-21T00:45:46;74793.31;;;-141.45;68.02
31403;BME280;18039;52.188;21.024;2022-08-21T00:48:13;74789.25;;;-141.45;68.15
31403;BME280;18039;52.188;21.024;2022-08-21T00:50:51;74801.41;;;-141.45;68.12
31403;BME280;18039;52.188;21.024;2022-08-21T00:53:19;74795.31;;;-141.45;68.28
31403;BME280;18039;52.188;21.024;2022-08-21T00:55:46;74789.25;;;-141.45;68.19
31403;BME280;18039;52.188;21.024;2022-08-21T00:58:15;74797.34;;;-141.45;68.34
31403;BME280;18039;52.188;21.024;2022-08-21T01:00:47;74801.41;;;-141.45;68.62
31403;BME280;18039;52.188;21.024;2022-08-21T01:03:18;74795.31;;;-141.45;68.58
31403;BME280;18039;52.188;21.024;2022-08-21T01:05:49;74801.41;;;-141.45;68.79
31403;BME280;18039;52.188;21.024;2022-08-21T01:08:17;74809.50;;;-141.45;68.93
31403;BME280;18039;52.188;21.024;2022-08-21T01:10:45;74813.56;;;-141.45;69.22
31403;BME280;18039;52.188;21.024;2022-08-21T01:13:19;74829.78;;;-141.45;69.77
31403;BME280;18039;52.188;21.024;2022-08-21T01:15:53;74829.78;;;-141.45;70.17
31403;BME280;18039;52.188;21.024;2022-08-21T01:18:21;74837.88;;;-141.45;70.11
31403;BME280;18039;52.188;21.024;2022-08-21T01:21:02;74837.88;;;-141.45;70.33
31403;BME280;18039;52.188;21.024;2022-08-21T01:23:29;74841.94;;;-141.45;70.43
31403;BME280;18039;52.188;21.024;2022-08-21T01:25:56;74843.94;;;-141.45;70.65
31403;BME280;18039;52.188;21.024;2022-08-21T01:28:23;74845.97;;;-141.45;70.76
31403;BME280;18039;52.188;21.024;2022-08-21T01:30:52;74843.94;;;-141.45;70.98
31403;BME280;18039;52.188;21.024;2022-08-21T01:33:22;74845.97;;;-141.45;71.08
31403;BME280;18039;52.188;21.024;2022-08-21T01:35:51;74841.94;;;-141.45;71.49
31403;BME280;18039;52.188;21.024;2022-08-21T01:38:18;74833.81;;;-141.45;71.26
31403;BME280;18039;52.188;21.024;2022-08-21T01:40:45;74833.81;;;-141.45;71.09
31403;BME280;18039;52.188;21.024;2022-08-21T01:43:12;74837.88;;;-141.45;71.18
31403;BME280;18039;52.188;21.024;2022-08-21T01:45:40;74833.81;;;-141.45;71.18
31403;BME280;18039;52.188;21.024;2022-08-21T01:48:07;74848.00;;;-141.45;71.53
31403;BME280;18039;52.188;21.024;2022-08-21T01:50:37;74856.09;;;-141.45;71.93
31403;BME280;18039;52.188;21.024;2022-08-21T01:53:04;74854.09;;;-141.45;72.13
31403;BME280;18039;52.188;21.024;2022-08-21T01:55:31;74852.06;;;-141.45;72.18
31403;BME280;18039;52.188;21.024;2022-08-21T01:57:59;74856.09;;;-141.45;72.18
31403;BME280;18039;52.188;21.024;2022-08-21T02:00:26;74845.97;;;-141.45;72.14
31403;BME280;18039;52.188;21.024;2022-08-21T02:02:53;74848.00;;;-141.45;72.07
31403;BME280;18039;52.188;21.024;2022-08-21T02:05:20;74845.97;;;-141.45;72.06
31403;BME280;18039;52.188;21.024;2022-08-21T02:07:49;74854.09;;;-141.45;72.04
31403;BME280;18039;52.188;21.024;2022-08-21T02:10:22;74854.09;;;-141.45;72.04
31403;BME280;18039;52.188;21.024;2022-08-21T02:12:50;74850.03;;;-141.45;72.47
31403;BME280;18039;52.188;21.024;2022-08-21T02:15:18;74854.09;;;-141.45;72.29
31403;BME280;18039;52.188;21.024;2022-08-21T02:17:54;74854.09;;;-141.45;72.38
31403;BME280;18039;52.188;21.024;2022-08-21T02:20:28;74856.09;;;-141.45;72.43
31403;BME280;18039;52.188;21.024;2022-08-21T02:22:56;74862.19;;;-141.45;72.46
31403;BME280;18039;52.188;21.024;2022-08-21T02:25:24;74862.19;;;-141.45;72.64
31403;BME280;18039;52.188;21.024;2022-08-21T02:27:52;74874.34;;;-141.45;72.78
31403;BME280;18039;52.188;21.024;2022-08-21T02:30:24;74870.28;;;-141.45;73.01
31403;BME280;18039;52.188;21.024;2022-08-21T02:32:51;74878.41;;;-141.45;73.11
31403;BME280;18039;52.188;21.024;2022-08-21T02:35:19;74878.41;;;-141.45;73.44
31403;BME280;18039;52.188;21.024;2022-08-21T02:37:52;74882.44;;;-141.45;73.35
31403;BME280;18039;52.188;21.024;2022-08-21T02:40:23;74890.56;;;-141.45;73.56
31403;BME280;18039;52.188;21.024;2022-08-21T02:42:51;74894.59;;;-141.45;73.69
31403;BME280;18039;52.188;21.024;2022-08-21T02:45:19;74902.72;;;-141.45;74.03
31403;BME280;18039;52.188;21.024;2022-08-21T02:47:51;74906.75;;;-141.45;74.40
31403;BME280;18039;52.188;21.024;2022-08-21T02:50:42;74906.75;;;-141.45;74.68
31403;BME280;18039;52.188;21.024;2022-08-21T02:53:11;74910.81;;;-141.45;74.92
31403;BME280;18039;52.188;21.024;2022-08-21T02:55:40;74918.91;;;-141.45;75.03
31403;BME280;18039;52.188;21.024;2022-08-21T02:58:07;74914.88;;;-141.45;75.27
31403;BME280;18039;52.188;21.024;2022-08-21T03:00:35;74912.84;;;-141.45;75.06
31403;BME280;18039;52.188;21.024;2022-08-21T03:03:04;74910.81;;;-141.45;75.18
31403;BME280;18039;52.188;21.024;2022-08-21T03:05:32;74914.88;;;-141.45;75.39
31403;BME280;18039;52.188;21.024;2022-08-21T03:08:02;74914.88;;;-141.45;75.51
31403;BME280;18039;52.188;21.024;2022-08-21T03:10:29;74912.84;;;-141.45;75.39
31403;BME280;18039;52.188;21.024;2022-08-21T03:12:57;74910.81;;;-141.45;75.71
31403;BME280;18039;52.188;21.024;2022-08-21T03:15:25;74918.91;;;-141.45;75.92
31403;BME280;18039;52.188;21.024;2022-08-21T03:17:52;74914.88;;;-141.45;76.09
31403;BME280;18039;52.188;21.024;2022-08-21T03:20:23;74920.94;;;-141.45;76.16
31403;BME280;18039;52.188;21.024;2022-08-21T03:22:52;74918.91;;;-141.45;75.93
31403;BME280;18039;52.188;21.024;2022-08-21T03:25:21;74918.91;;;-141.45;76.17
31403;BME280;18039;52.188;21.024;2022-08-21T03:28:09;74929.03;;;-141.45;76.29
31403;BME280;18039;52.188;21.024;2022-08-21T03:30:43;74922.97;;;-141.45;76.27
31403;BME280;18039;52.188;21.024;2022-08-21T03:33:12;74931.06;;;-141.45;76.61
31403;BME280;18039;52.188;21.024;2022-08-21T03:35:43;74931.06;;;-141.45;76.34
31403;BME280;18039;52.188;21.024;2022-08-21T03:38:11;74927.03;;;-141.45;76.59
31403;BME280;18039;52.188;21.024;2022-08-21T03:40:42;74935.13;;;-141.45;76.83
31403;BME280;18039;52.188;21.024;2022-08-21T03:43:10;74931.06;;;-141.45;76.83
31403;BME280;18039;52.188;21.024;2022-08-21T03:45:37;74929.03;;;-141.45;76.65
31403;BME280;18039;52.188;21.024;2022-08-21T03:48:06;74927.03;;;-141.45;76.59
31403;BME280;18039;52.188;21.024;2022-08-21T03:50:36;74929.03;;;-141.45;76.62
31403;BME280;18039;52.188;21.024;2022-08-21T03:53:11;74925.00;;;-141.45;76.67
31403;BME280;18039;52.188;21.024;2022-08-21T03:55:45;74927.03;;;-141.45;76.61
31403;BME280;18039;52.188;21.024;2022-08-21T03:58:18;74931.06;;;-141.45;76.51
31403;BME280;18039;52.188;21.024;2022-08-21T04:00:47;74922.97;;;-141.45;76.51
31403;BME280;18039;52.188;21.024;2022-08-21T04:03:16;74922.97;;;-141.45;76.40
31403;BME280;18039;52.188;21.024;2022-08-21T04:05:43;74931.06;;;-141.45;76.37
31403;BME280;18039;52.188;21.024;2022-08-21T04:08:13;74931.06;;;-141.45;76.69
31403;BME280;18039;52.188;21.024;2022-08-21T04:10:43;74927.03;;;-141.45;76.41
31403;BME280;18039;52.188;21.024;2022-08-21T04:13:10;74931.06;;;-141.45;76.27
31403;BME280;18039;52.188;21.024;2022-08-21T04:15:38;74927.03;;;-141.45;76.23
31403;BME280;18039;52.188;21.024;2022-08-21T04:18:05;74922.97;;;-141.45;76.21
31403;BME280;18039;52.188;21.024;2022-08-21T04:20:32;74922.97;;;-141.45;76.39
31403;BME280;18039;52.188;21.024;2022-08-21T04:23:00;74918.91;;;-141.45;76.34
31403;BME280;18039;52.188;21.024;2022-08-21T04:25:28;74910.81;;;-141.45;75.78
31403;BME280;18039;52.188;21.024;2022-08-21T04:27:55;74910.81;;;-141.45;75.67
31403;BME280;18039;52.188;21.024;2022-08-21T04:30:22;74914.88;;;-141.45;75.73
31403;BME280;18039;52.188;21.024;2022-08-21T04:32:56;74910.81;;;-141.45;75.64
31403;BME280;18039;52.188;21.024;2022-08-21T04:35:25;74914.88;;;-141.45;75.37
31403;BME280;18039;52.188;21.024;2022-08-21T04:37:53;74914.88;;;-141.45;75.22
31403;BME280;18039;52.188;21.024;2022-08-21T04:40:22;74902.72;;;-141.45;75.52
31403;BME280;18039;52.188;21.024;2022-08-21T04:42:57;74894.59;;;-141.45;75.00
31403;BME280;18039;52.188;21.024;2022-08-21T04:47:57;74890.56;;;-141.45;74.24
31403;BME280;18039;52.188;21.024;2022-08-21T04:50:35;74878.41;;;-141.45;74.33
31403;BME280;18039;52.188;21.024;2022-08-21T04:53:05;74874.34;;;-141.45;74.65
31403;BME280;18039;52.188;21.024;2022-08-21T04:55:34;74878.41;;;-141.45;74.56
31403;BME280;18039;52.188;21.024;2022-08-21T04:58:01;74874.34;;;-141.45;74.95
31403;BME280;18039;52.188;21.024;2022-08-21T05:00:28;74874.34;;;-141.45;74.36
31403;BME280;18039;52.188;21.024;2022-08-21T05:02:56;74890.56;;;-141.45;74.60
31403;BME280;18039;52.188;21.024;2022-08-21T05:05:28;74890.56;;;-141.45;74.98
31403;BME280;18039;52.188;21.024;2022-08-21T05:07:57;74890.56;;;-141.45;75.39
31403;BME280;18039;52.188;21.024;2022-08-21T05:10:26;74890.56;;;-141.45;75.04
31403;BME280;18039;52.188;21.024;2022-08-21T05:12:54;74882.44;;;-141.45;74.91
31403;BME280;18039;52.188;21.024;2022-08-21T05:15:22;74874.34;;;-141.45;74.67
31403;BME280;18039;52.188;21.024;2022-08-21T05:17:49;74850.03;;;-141.45;73.97
31403;BME280;18039;52.188;21.024;2022-08-21T05:20:26;74835.84;;;-141.45;74.05
31403;BME280;18039;52.188;21.024;2022-08-21T05:22:53;74821.66;;;-141.45;73.37
31403;BME280;18039;52.188;21.024;2022-08-21T05:25:20;74805.47;;;-141.45;73.02
31403;BME280;18039;52.188;21.024;2022-08-21T05:27:50;74811.53;;;-141.45;72.52
31403;BME280;18039;52.188;21.024;2022-08-21T05:30:19;74805.47;;;-141.45;72.40
31403;BME280;18039;52.188;21.024;2022-08-21T05:32:47;74793.31;;;-141.45;71.53
31403;BME280;18039;52.188;21.024;2022-08-21T05:35:14;74783.16;;;-141.45;71.91
31403;BME280;18039;52.188;21.024;2022-08-21T05:37:41;74769.00;;;-141.45;71.86
31403;BME280;18039;52.188;21.024;2022-08-21T05:40:09;74756.84;;;-141.45;71.94
31403;BME280;18039;52.188;21.024;2022-08-21T05:42:50;74748.72;;;-141.45;71.21
31403;BME280;18039;52.188;21.024;2022-08-21T05:45:28;74744.69;;;-141.45;70.05
31403;BME280;18039;52.188;21.024;2022-08-21T05:48:22;74746.69;;;-141.45;70.39
31403;BME280;18039;52.188;21.024;2022-08-21T05:50:51;74734.53;;;-141.45;70.32
31403;BME280;18039;52.188;21.024;2022-08-21T05:53:19;74736.56;;;-141.45;69.94
31403;BME280;18039;52.188;21.024;2022-08-21T05:55:47;74740.63;;;-141.45;70.11
31403;BME280;18039;52.188;21.024;2022-08-21T05:58:16;74744.69;;;-141.45;70.53
31403;BME280;18039;52.188;21.024;2022-08-21T06:00:45;74752.78;;;-141.45;70.89
31403;BME280;18039;52.188;21.024;2022-08-21T06:03:22;74760.88;;;-141.45;70.75
31403;BME280;18039;52.188;21.024;2022-08-21T06:05:50;74775.06;;;-141.45;71.25
31403;BME280;18039;52.188;21.024;2022-08-21T06:08:19;74777.09;;;-141.45;71.40
31403;BME280;18039;52.188;21.024;2022-08-21T06:10:47;74769.00;;;-141.45;71.38
31403;BME280;18039;52.188;21.024;2022-08-21T06:13:16;74769.00;;;-141.45;71.41
31403;BME280;18039;52.188;21.024;2022-08-21T06:15:44;74760.88;;;-141.45;71.35
31403;BME280;18039;52.188;21.024;2022-08-21T06:18:11;74740.63;;;-141.45;71.11
31403;BME280;18039;52.188;21.024;2022-08-21T06:20:38;74732.53;;;-141.45;70.39
31403;BME280;18039;52.188;21.024;2022-08-21T06:23:06;74732.53;;;-141.45;70.56
31403;BME280;18039;52.188;21.024;2022-08-21T06:25:33;74724.41;;;-141.45;70.31
31403;BME280;18039;52.188;21.024;2022-08-21T06:28:08;74704.16;;;-141.45;69.81
31403;BME280;18039;52.188;21.024;2022-08-21T06:30:37;74692.00;;;-141.45;69.08
31403;BME280;18039;52.188;21.024;2022-08-21T06:33:07;74679.84;;;-141.45;69.05
31403;BME280;18039;52.188;21.024;2022-08-21T06:35:34;74669.72;;;-141.45;69.21
31403;BME280;18039;52.188;21.024;2022-08-21T06:38:03;74667.69;;;-141.45;68.82
31403;BME280;18039;52.188;21.024;2022-08-21T06:40:31;74667.69;;;-141.45;68.99
31403;BME280;18039;52.188;21.024;2022-08-21T06:43:09;74665.66;;;-141.45;69.05
31403;BME280;18039;52.188;21.024;2022-08-21T06:45:41;74659.59;;;-141.45;68.79
31403;BME280;18039;52.188;21.024;2022-08-21T06:48:08;74643.38;;;-141.45;68.69
31403;BME280;18039;52.188;21.024;2022-08-21T06:50:36;74635.28;;;-141.45;68.39
31403;BME280;18039;52.188;21.024;2022-08-21T06:53:09;74627.16;;;-141.45;67.94
31403;BME280;18039;52.188;21.024;2022-08-21T06:55:37;74633.25;;;-141.45;67.68
31403;BME280;18039;52.188;21.024;2022-08-21T06:58:06;74639.31;;;-141.45;67.90
31403;BME280;18039;52.188;21.024;2022-08-21T07:00:33;74649.47;;;-141.45;68.57
31403;BME280;18039;52.188;21.024;2022-08-21T07:03:00;74651.47;;;-141.45;68.73
31403;BME280;18039;52.188;21.024;2022-08-21T07:05:29;74651.47;;;-141.45;68.68
31403;BME280;18039;52.188;21.024;2022-08-21T07:07:56;74653.50;;;-141.45;68.83
31403;BME280;18039;52.188;21.024;2022-08-21T07:10:25;74647.44;;;-141.45;68.53
31403;BME280;18039;52.188;21.024;2022-08-21T07:12:53;74625.16;;;-141.45;68.41
31403;BME280;18039;52.188;21.024;2022-08-21T07:15:30;74615.00;;;-141.45;67.49
31403;BME280;18039;52.188;21.024;2022-08-21T07:17:58;74623.13;;;-141.45;67.60
31403;BME280;18039;52.188;21.024;2022-08-21T07:20:27;74619.06;;;-141.45;67.81
31403;BME280;18039;52.188;21.024;2022-08-21T07:22:57;74602.84;;;-141.45;67.72
31403;BME280;18039;52.188;21.024;2022-08-21T07:25:26;74598.81;;;-141.45;67.19
31403;BME280;18039;52.188;21.024;2022-08-21T07:27:53;74596.78;;;-141.45;66.72
31403;BME280;18039;52.188;21.024;2022-08-21T07:30:21;74594.75;;;-141.45;66.69
31403;BME280;18039;52.188;21.024;2022-08-21T07:32:48;74582.59;;;-141.45;67.42
31403;BME280;18039;52.188;21.024;2022-08-21T07:35:17;74578.53;;;-141.45;67.57
31403;BME280;18039;52.188;21.024;2022-08-21T07:37:44;74564.38;;;-141.45;67.22
31403;BME280;18039;52.188;21.024;2022-08-21T07:40:12;74554.22;;;-141.45;67.03
31403;BME280;18039;52.188;21.024;2022-08-21T07:42:44;74531.94;;;-141.45;66.75
31403;BME280;18039;52.188;21.024;2022-08-21T07:45:13;74525.88;;;-141.45;65.98
31403;BME280;18039;52.188;21.024;2022-08-21T07:47:40;74509.66;;;-141.45;64.94
31403;BME280;18039;52.188;21.024;2022-08-21T07:50:10;74501.56;;;-141.45;64.23
31403;BME280;18039;52.188;21.024;2022-08-21T07:52:40;74489.41;;;-141.45;64.35
31403;BME280;18039;52.188;21.024;2022-08-21T07:55:09;74473.19;;;-141.45;64.06
31403;BME280;18039;52.188;21.024;2022-08-21T07:57:36;74465.09;;;-141.45;63.64
31403;BME280;18039;52.188;21.024;2022-08-21T08:00:09;74452.94;;;-141.45;63.65
31403;BME280;18039;52.188;21.024;2022-08-21T08:02:40;74452.94;;;-141.45;62.98
31403;BME280;18039;52.188;21.024;2022-08-21T08:05:10;74444.84;;;-141.45;62.77
31403;BME280;18039;52.188;21.024;2022-08-21T08:07:38;74440.78;;;-141.45;62.84
31403;BME280;18039;52.188;21.024;2022-08-21T08:10:06;74440.78;;;-141.45;63.45
31403;BME280;18039;52.188;21.024;2022-08-21T08:12:39;74432.69;;;-141.45;63.81
31403;BME280;18039;52.188;21.024;2022-08-21T08:15:10;74420.53;;;-141.45;63.08
31403;BME280;18039;52.188;21.024;2022-08-21T08:17:37;74428.63;;;-141.45;62.82
31403;BME280;18039;52.188;21.024;2022-08-21T08:20:07;74428.63;;;-141.45;62.35
31403;BME280;18039;52.188;21.024;2022-08-21T08:22:36;74428.63;;;-141.45;62.73
31403;BME280;18039;52.188;21.024;2022-08-21T08:25:06;74420.53;;;-141.45;63.02
31403;BME280;18039;52.188;21.024;2022-08-21T08:27:36;74400.28;;;-141.45;63.19
31403;BME280;18039;52.188;21.024;2022-08-21T08:30:05;74388.13;;;-141.45;63.28
31403;BME280;18039;52.188;21.024;2022-08-21T08:32:33;74375.97;;;-141.45;62.85
31403;BME280;18039;52.188;21.024;2022-08-21T08:35:00;74363.81;;;-141.45;62.12
31403;BME280;18039;52.188;21.024;2022-08-21T08:37:27;74359.75;;;-141.45;61.67
31403;BME280;18039;52.188;21.024;2022-08-21T08:40:00;74363.81;;;-141.45;60.76
31403;BME280;18039;52.188;21.024;2022-08-21T08:42:33;74363.81;;;-141.45;60.55
31403;BME280;18039;52.188;21.024;2022-08-21T08:45:17;74367.84;;;-141.45;60.72
31403;BME280;18039;52.188;21.024;2022-08-21T08:47:52;74355.69;;;-141.45;60.82
31403;BME280;18039;52.188;21.024;2022-08-21T08:50:41;74355.69;;;-141.45;59.92
31403;BME280;18039;52.188;21.024;2022-08-21T08:53:18;74339.50;;;-141.45;58.87
31403;BME280;18039;52.188;21.024;2022-08-21T08:55:47;74327.34;;;-141.45;58.86
31403;BME280;18039;52.188;21.024;2022-08-21T08:58:31;74311.13;;;-141.45;58.73
31403;BME280;18039;52.188;21.024;2022-08-21T09:00:58;74290.88;;;-141.45;59.27
31403;BME280;18039;52.188;21.024;2022-08-21T09:03:27;74274.69;;;-141.45;58.20
31403;BME280;18039;52.188;21.024;2022-08-21T09:06:01;74258.47;;;-141.45;58.46
31403;BME280;18039;52.188;21.024;2022-08-21T09:11:04;74270.63;;;-141.45;58.57
31403;BME280;18039;52.188;21.024;2022-08-21T09:13:42;74288.84;;;-141.45;58.60
31403;BME280;18039;52.188;21.024;2022-08-21T09:16:29;74311.13;;;-141.45;58.93
31403;BME280;18039;52.188;21.024;2022-08-21T09:22:16;74329.38;;;-141.45;58.69
31403;BME280;18039;52.188;21.024;2022-08-21T09:25:05;74323.28;;;-141.45;57.45
31403;BME280;18039;52.188;21.024;2022-08-21T09:27:34;74307.09;;;-141.45;57.61
31403;BME280;18039;52.188;21.024;2022-08-21T09:30:05;74294.94;;;-141.45;57.26
31403;BME280;18039;52.188;21.024;2022-08-21T09:32:34;74278.72;;;-141.45;56.81
31403;BME280;18039;52.188;21.024;2022-08-21T09:37:44;74238.22;;;-141.45;55.53
31403;BME280;18039;52.188;21.024;2022-08-21T09:40:19;74230.09;;;-141.45;55.43
31403;BME280;18039;52.188;21.024;2022-08-21T09:43:00;74234.16;;;-141.45;54.66
31403;BME280;18039;52.188;21.024;2022-08-21T09:45:31;74242.25;;;-141.45;55.44
31403;BME280;18039;52.188;21.024;2022-08-21T09:48:22;74236.19;;;-141.45;55.12
31403;BME280;18039;52.188;21.024;2022-08-21T09:50:53;74232.13;;;-141.45;54.79
31403;BME280;18039;52.188;21.024;2022-08-21T09:53:31;74217.94;;;-141.45;53.70
31403;BME280;18039;52.188;21.024;2022-08-21T09:56:05;74209.84;;;-141.45;53.56
31403;BME280;18039;52.188;21.024;2022-08-21T09:58:59;74205.81;;;-141.45;53.96
31403;BME280;18039;52.188;21.024;2022-08-21T10:01:26;74209.84;;;-141.45;54.40
31403;BME280;18039;52.188;21.024;2022-08-21T10:04:06;74217.94;;;-141.45;55.39
31403;BME280;18039;52.188;21.024;2022-08-21T10:06:34;74226.06;;;-141.45;54.29
31403;BME280;18039;52.188;21.024;2022-08-21T10:09:10;74230.09;;;-141.45;54.90
31403;BME280;18039;52.188;21.024;2022-08-21T10:14:50;74226.06;;;-141.45;54.96
31403;BME280;18039;52.188;21.024;2022-08-21T10:17:33;74222.00;;;-141.45;54.24
31403;BME280;18039;52.188;21.024;2022-08-21T10:20:09;74205.81;;;-141.45;54.41
31403;BME280;18039;52.188;21.024;2022-08-21T10:25:50;74177.44;;;-141.45;53.93
31403;BME280;18039;52.188;21.024;2022-08-21T10:48:36;74132.88;;;-141.45;52.35
31403;BME280;18039;52.188;21.024;2022-08-21T10:53:59;74140.97;;;-141.45;52.94
31403;BME280;18039;52.188;21.024;2022-08-21T10:56:32;74140.97;;;-141.45;53.31
31403;BME280;18039;52.188;21.024;2022-08-21T11:01:48;74128.81;;;-141.45;52.66
31403;BME280;18039;52.188;21.024;2022-08-21T11:04:30;74134.91;;;-141.45;52.31
31403;BME280;18039;52.188;21.024;2022-08-21T11:07:39;74128.81;;;-141.45;52.24
31403;BME280;18039;52.188;21.024;2022-08-21T11:10:19;74136.94;;;-141.45;52.59
31403;BME280;18039;52.188;21.024;2022-08-21T11:12:55;74140.97;;;-141.45;52.22
31403;BME280;18039;52.188;21.024;2022-08-21T11:18:36;74153.13;;;-141.45;52.95
31403;BME280;18039;52.188;21.024;2022-08-21T11:21:09;74165.28;;;-141.45;52.47
31403;BME280;18039;52.188;21.024;2022-08-21T11:26:49;74161.22;;;-141.45;53.31
31403;BME280;18039;52.188;21.024;2022-08-21T11:29:25;74157.19;;;-141.45;53.04
31403;BME280;18039;52.188;21.024;2022-08-21T11:34:51;74104.50;;;-141.45;52.25
31403;BME280;18039;52.188;21.024;2022-08-21T11:38:08;74096.41;;;-141.45;51.38
31403;BME280;18039;52.188;21.024;2022-08-21T11:43:21;74080.22;;;-141.45;50.85
31403;BME280;18039;52.188;21.024;2022-08-21T11:51:11;74074.13;;;-141.45;50.60
31403;BME280;18039;52.188;21.024;2022-08-21T11:54:14;74072.09;;;-141.45;50.53
31403;BME280;18039;52.188;21.024;2022-08-21T11:56:48;74084.25;;;-141.45;50.56
31403;BME280;18039;52.188;21.024;2022-08-21T12:02:13;74072.09;;;-141.45;48.70
31403;BME280;18039;52.188;21.024;2022-08-21T12:04:52;74055.91;;;-141.45;48.95
31403;BME280;18039;52.188;21.024;2022-08-21T12:10:12;74031.59;;;-141.45;49.10
31403;BME280;18039;52.188;21.024;2022-08-21T12:12:42;74007.28;;;-141.45;48.98
31403;BME280;18039;52.188;21.024;2022-08-21T12:25:46;73974.88;;;-141.45;47.25
31403;BME280;18039;52.188;21.024;2022-08-21T12:28:21;73958.69;;;-141.45;46.78
31403;BME280;18039;52.188;21.024;2022-08-21T12:30:48;73938.41;;;-141.45;45.89
31403;BME280;18039;52.188;21.024;2022-08-21T12:33:24;73930.31;;;-141.45;45.45
31403;BME280;18039;52.188;21.024;2022-08-21T12:36:03;73938.41;;;-141.45;46.40
31403;BME280;18039;52.188;21.024;2022-08-21T12:38:55;73934.38;;;-141.45;46.82
31403;BME280;18039;52.188;21.024;2022-08-21T12:41:28;73958.69;;;-141.45;47.06
31403;BME280;18039;52.188;21.024;2022-08-21T12:44:01;73978.94;;;-141.45;47.20
31403;BME280;18039;52.188;21.024;2022-08-21T12:46:39;74003.25;;;-141.45;47.68
31403;BME280;18039;52.188;21.024;2022-08-21T12:49:14;74015.38;;;-141.45;48.61
31403;BME280;18039;52.188;21.024;2022-08-21T12:54:31;74021.47;;;-141.45;48.79
31403;BME280;18039;52.188;21.024;2022-08-21T12:57:01;74003.25;;;-141.45;48.92
31403;BME280;18039;52.188;21.024;2022-08-21T12:59:30;73982.97;;;-141.45;48.47
31403;BME280;18039;52.188;21.024;2022-08-21T13:02:00;73974.88;;;-141.45;48.28
31403;BME280;18039;52.188;21.024;2022-08-21T13:04:39;73966.78;;;-141.45;48.07
31403;BME280;18039;52.188;21.024;2022-08-21T13:07:10;73938.41;;;-141.45;48.21
31403;BME280;18039;52.188;21.024;2022-08-21T13:09:44;73934.38;;;-141.45;47.86
31403;BME280;18039;52.188;21.024;2022-08-21T13:12:15;73926.25;;;-141.45;47.55
31403;BME280;18039;52.188;21.024;2022-08-21T13:14:44;73922.22;;;-141.45;47.68
31403;BME280;18039;52.188;21.024;2022-08-21T13:17:16;73918.16;;;-141.45;47.48
31403;BME280;18039;52.188;21.024;2022-08-21T13:20:09;73922.22;;;-141.45;46.90
31403;BME280;18039;52.188;21.024;2022-08-21T13:22:42;73954.63;;;-141.45;47.46
31403;BME280;18039;52.188;21.024;2022-08-21T13:25:13;73962.72;;;-141.45;47.65
31403;BME280;18039;52.188;21.024;2022-08-21T13:27:43;73978.94;;;-141.45;47.37
31403;BME280;18039;52.188;21.024;2022-08-21T13:30:19;73978.94;;;-141.45;47.75
31403;BME280;18039;52.188;21.024;2022-08-21T13:32:50;73978.94;;;-141.45;47.54
31403;BME280;18039;52.188;21.024;2022-08-21T13:35:20;73974.88;;;-141.45;48.04
31403;BME280;18039;52.188;21.024;2022-08-21T13:37:49;73974.88;;;-141.45;48.03
31403;BME280;18039;52.188;21.024;2022-08-21T13:40:26;73974.88;;;-141.45;48.23
31403;BME280;18039;52.188;21.024;2022-08-21T13:42:54;73970.81;;;-141.45;47.95
31403;BME280;18039;52.188;21.024;2022-08-21T13:45:30;73991.09;;;-141.45;48.24
31403;BME280;18039;52.188;21.024;2022-08-21T13:48:00;74007.28;;;-141.45;49.00
31403;BME280;18039;52.188;21.024;2022-08-21T13:50:35;74017.41;;;-141.45;49.46
31403;BME280;18039;52.188;21.024;2022-08-21T13:53:06;74021.47;;;-141.45;49.76
31403;BME280;18039;52.188;21.024;2022-08-21T13:55:40;74027.53;;;-141.45;49.67
31403;BME280;18039;52.188;21.024;2022-08-21T13:58:10;74033.63;;;-141.45;49.63
31403;BME280;18039;52.188;21.024;2022-08-21T14:00:49;74025.50;;;-141.45;49.50
31403;BME280;18039;52.188;21.024;2022-08-21T14:03:42;74021.47;;;-141.45;49.60
31403;BME280;18039;52.188;21.024;2022-08-21T14:06:15;74015.38;;;-141.45;48.99
31403;BME280;18039;52.188;21.024;2022-08-21T14:08:59;73999.19;;;-141.45;49.14
31403;BME280;18039;52.188;21.024;2022-08-21T14:11:32;73991.09;;;-141.45;48.99